createdAt,value
2018-10-02T00:00:27.483Z,19.19
2018-10-02T00:01:27.443Z,19.19
2018-10-02T00:02:27.427Z,19.2
2018-10-02T00:03:27.286Z,19.18
2018-10-02T00:04:27.525Z,19.18
2018-10-02T00:05:27.892Z,19.19
2018-10-02T00:06:27.520Z,19.2
2018-10-02T00:07:27.330Z,19.2
2018-10-02T00:08:27.248Z,19.16
2018-10-02T00:09:27.527Z,19.18
2018-10-02T00:10:27.298Z,19.19
2018-10-02T00:11:27.384Z,19.18
2018-10-02T00:12:27.464Z,19.19
2018-10-02T00:13:27.463Z,19.18
2018-10-02T00:14:27.585Z,19.19
2018-10-02T00:15:27.338Z,19.16
2018-10-02T00:16:27.362Z,19.18
2018-10-02T00:17:27.896Z,19.18
2018-10-02T00:18:27.409Z,19.22
2018-10-02T00:19:27.297Z,19.18
2018-10-02T00:20:27.389Z,19.16
2018-10-02T00:21:27.771Z,19.18
2018-10-02T00:22:27.472Z,19.18
2018-10-02T00:23:27.539Z,19.16
2018-10-02T00:24:27.493Z,19.16
2018-10-02T00:25:27.358Z,19.19
2018-10-02T00:26:27.397Z,19.19
2018-10-02T00:27:27.374Z,19.18
2018-10-02T00:28:27.478Z,19.16
2018-10-02T00:29:27.841Z,19.19
2018-10-02T00:30:27.485Z,19.18
2018-10-02T00:31:28.672Z,19.15
2018-10-02T00:32:29.696Z,19.16
2018-10-02T00:33:27.717Z,19.15
2018-10-02T00:34:27.433Z,19.16
2018-10-02T00:35:27.450Z,19.16
2018-10-02T00:36:27.768Z,19.18
2018-10-02T00:37:27.488Z,19.16
2018-10-02T00:38:27.692Z,19.18
2018-10-02T00:39:27.764Z,19.16
2018-10-02T00:40:27.336Z,19.18
2018-10-02T00:41:27.428Z,19.16
2018-10-02T00:42:27.390Z,19.19
2018-10-02T00:43:27.241Z,19.18
2018-10-02T00:44:27.360Z,19.16
2018-10-02T00:45:27.810Z,19.18
2018-10-02T00:46:27.692Z,19.19
2018-10-02T00:47:27.720Z,19.18
2018-10-02T00:48:27.616Z,19.16
2018-10-02T00:49:27.502Z,19.18
2018-10-02T00:50:27.479Z,19.15
2018-10-02T00:51:27.436Z,19.16
2018-10-02T00:52:27.489Z,19.15
2018-10-02T00:53:27.261Z,19.15
2018-10-02T00:54:27.425Z,19.18
2018-10-02T00:55:27.299Z,19.15
2018-10-02T00:56:27.437Z,19.19
2018-10-02T00:57:27.770Z,19.16
2018-10-02T00:58:27.345Z,19.16
2018-10-02T00:59:27.343Z,19.16
2018-10-02T01:00:27.773Z,19.16
2018-10-02T01:01:27.369Z,19.16
2018-10-02T01:02:27.418Z,19.16
2018-10-02T01:03:27.353Z,19.13
2018-10-02T01:04:27.450Z,19.15
2018-10-02T01:05:27.505Z,19.15
2018-10-02T01:06:27.808Z,19.15
2018-10-02T01:07:27.943Z,19.16
2018-10-02T01:08:27.308Z,19.15
2018-10-02T01:09:27.434Z,19.15
2018-10-02T01:10:27.369Z,19.18
2018-10-02T01:11:27.439Z,19.15
2018-10-02T01:12:27.683Z,19.16
2018-10-02T01:13:27.496Z,19.15
2018-10-02T01:14:27.818Z,19.15
2018-10-02T01:15:27.274Z,19.13
2018-10-02T01:16:27.434Z,19.13
2018-10-02T01:17:27.354Z,19.15
2018-10-02T01:18:27.549Z,19.13
2018-10-02T01:19:27.730Z,19.12
2018-10-02T01:20:27.423Z,19.13
2018-10-02T01:21:27.512Z,19.16
2018-10-02T01:22:27.348Z,19.13
2018-10-02T01:23:27.270Z,19.16
2018-10-02T01:24:27.338Z,19.13
2018-10-02T01:25:27.899Z,19.15
2018-10-02T01:26:27.535Z,19.15
2018-10-02T01:27:27.390Z,19.16
2018-10-02T01:28:27.389Z,19.13
2018-10-02T01:29:27.286Z,19.13
2018-10-02T01:30:27.279Z,19.13
2018-10-02T01:31:27.386Z,19.13
2018-10-02T01:32:27.747Z,19.12
2018-10-02T01:33:27.384Z,19.12
2018-10-02T01:34:27.543Z,19.15
2018-10-02T01:35:27.430Z,19.13
2018-10-02T01:36:27.489Z,19.15
2018-10-02T01:37:27.354Z,19.13
2018-10-02T01:38:27.471Z,19.15
2018-10-02T01:39:27.439Z,19.13
2018-10-02T01:40:27.332Z,19.13
2018-10-02T01:41:27.288Z,19.12
2018-10-02T01:42:27.533Z,19.12
2018-10-02T01:43:27.475Z,19.11
2018-10-02T01:44:27.795Z,19.12
2018-10-02T01:45:27.458Z,19.11
2018-10-02T01:46:27.497Z,19.11
2018-10-02T01:47:27.332Z,19.12
2018-10-02T01:48:27.330Z,19.12
2018-10-02T01:49:27.489Z,19.08
2018-10-02T01:50:27.412Z,19.12
2018-10-02T01:51:27.285Z,19.11
2018-10-02T01:52:27.307Z,19.13
2018-10-02T01:53:27.366Z,19.13
2018-10-02T01:54:27.881Z,19.12
2018-10-02T01:55:27.419Z,19.11
2018-10-02T01:56:27.341Z,19.09
2018-10-02T01:57:27.236Z,19.12
2018-10-02T01:58:27.346Z,19.11
2018-10-02T01:59:27.283Z,19.12
2018-10-02T02:00:27.445Z,19.13
2018-10-02T02:01:27.427Z,19.11
2018-10-02T02:02:27.375Z,19.13
2018-10-02T02:03:27.399Z,19.12
2018-10-02T02:04:27.437Z,19.13
2018-10-02T02:05:27.458Z,19.09
2018-10-02T02:06:27.781Z,19.12
2018-10-02T02:07:27.301Z,19.09
2018-10-02T02:08:27.368Z,19.09
2018-10-02T02:09:27.359Z,19.12
2018-10-02T02:10:27.413Z,19.11
2018-10-02T02:11:27.598Z,19.09
2018-10-02T02:12:27.434Z,19.08
2018-10-02T02:13:27.499Z,19.11
2018-10-02T02:14:27.842Z,19.08
2018-10-02T02:15:27.713Z,19.08
2018-10-02T02:16:27.480Z,19.12
2018-10-02T02:17:27.329Z,19.11
2018-10-02T02:18:27.473Z,19.11
2018-10-02T02:19:27.755Z,19.09
2018-10-02T02:20:27.429Z,19.13
2018-10-02T02:21:27.366Z,19.11
2018-10-02T02:22:27.475Z,19.11
2018-10-02T02:23:27.538Z,19.12
2018-10-02T02:24:27.317Z,19.11
2018-10-02T02:25:27.545Z,19.09
2018-10-02T02:26:27.262Z,19.11
2018-10-02T02:27:27.880Z,19.11
2018-10-02T02:28:27.378Z,19.11
2018-10-02T02:29:27.197Z,19.11
2018-10-02T02:30:27.853Z,19.12
2018-10-02T02:31:27.377Z,19.09
2018-10-02T02:32:27.418Z,19.09
2018-10-02T02:33:27.365Z,19.06
2018-10-02T02:34:27.316Z,19.06
2018-10-02T02:35:27.767Z,19.09
2018-10-02T02:36:27.410Z,19.09
2018-10-02T02:37:27.377Z,19.08
2018-10-02T02:38:27.588Z,19.11
2018-10-02T02:39:27.599Z,19.11
2018-10-02T02:40:27.382Z,19.09
2018-10-02T02:41:27.347Z,19.06
2018-10-02T02:42:27.212Z,19.11
2018-10-02T02:43:27.259Z,19.09
2018-10-02T02:44:27.135Z,19.11
2018-10-02T02:45:27.619Z,19.11
2018-10-02T02:46:27.157Z,19.09
2018-10-02T02:47:27.386Z,19.11
2018-10-02T02:48:27.258Z,19.09
2018-10-02T02:49:27.416Z,19.09
2018-10-02T02:50:27.609Z,19.06
2018-10-02T02:51:27.321Z,19.09
2018-10-02T02:52:27.725Z,19.11
2018-10-02T02:53:27.342Z,19.11
2018-10-02T02:54:27.504Z,19.08
2018-10-02T02:55:27.375Z,19.09
2018-10-02T02:56:27.182Z,19.06
2018-10-02T02:57:27.351Z,19.09
2018-10-02T02:58:27.387Z,19.09
2018-10-02T02:59:27.650Z,19.08
2018-10-02T03:00:27.507Z,19.08
2018-10-02T03:01:27.307Z,19.09
2018-10-02T03:02:27.293Z,19.09
2018-10-02T03:03:27.535Z,19.08
2018-10-02T03:04:27.294Z,19.08
2018-10-02T03:05:27.416Z,19.11
2018-10-02T03:06:27.423Z,19.09
2018-10-02T03:07:27.600Z,19.08
2018-10-02T03:08:27.232Z,19.08
2018-10-02T03:09:27.487Z,19.06
2018-10-02T03:10:27.345Z,19.11
2018-10-02T03:11:27.414Z,19.08
2018-10-02T03:12:27.332Z,19.08
2018-10-02T03:13:27.312Z,19.09
2018-10-02T03:14:27.481Z,19.08
2018-10-02T03:15:27.540Z,19.05
2018-10-02T03:16:27.371Z,19.08
2018-10-02T03:17:27.527Z,19.05
2018-10-02T03:18:27.351Z,19.08
2018-10-02T03:19:27.907Z,19.08
2018-10-02T03:20:27.475Z,19.06
2018-10-02T03:21:27.364Z,19.08
2018-10-02T03:22:27.402Z,19.08
2018-10-02T03:23:27.333Z,19.08
2018-10-02T03:24:27.574Z,19.05
2018-10-02T03:25:27.512Z,19.11
2018-10-02T03:26:27.438Z,19.06
2018-10-02T03:27:27.378Z,19.08
2018-10-02T03:28:27.534Z,19.09
2018-10-02T03:29:27.641Z,19.08
2018-10-02T03:30:27.397Z,19.05
2018-10-02T03:31:27.899Z,19.05
2018-10-02T03:32:27.377Z,19.03
2018-10-02T03:33:27.406Z,19.06
2018-10-02T03:34:27.409Z,19.05
2018-10-02T03:35:27.336Z,19.06
2018-10-02T03:36:27.357Z,19.03
2018-10-02T03:37:27.672Z,19.05
2018-10-02T03:38:27.365Z,19.06
2018-10-02T03:39:27.634Z,19.06
2018-10-02T03:40:27.464Z,19.06
2018-10-02T03:41:27.588Z,19.06
2018-10-02T03:42:27.338Z,19.05
2018-10-02T03:43:27.505Z,19.03
2018-10-02T03:44:27.318Z,19.03
2018-10-02T03:45:27.438Z,19.05
2018-10-02T03:46:27.683Z,19.08
2018-10-02T03:47:27.315Z,19.01
2018-10-02T03:48:27.333Z,19.02
2018-10-02T03:49:27.301Z,19.05
2018-10-02T03:50:27.215Z,19.05
2018-10-02T03:51:27.368Z,19.03
2018-10-02T03:52:27.418Z,19.02
2018-10-02T03:53:27.390Z,19.03
2018-10-02T03:54:27.321Z,19.03
2018-10-02T03:55:27.266Z,19.05
2018-10-02T03:56:27.546Z,19.06
2018-10-02T03:57:27.621Z,19.05
2018-10-02T03:58:27.760Z,19.02
2018-10-02T03:59:27.354Z,19.03
2018-10-02T04:00:27.219Z,19.03
2018-10-02T04:01:27.342Z,19.01
2018-10-02T04:02:27.328Z,19.03
2018-10-02T04:03:28.564Z,19.02
2018-10-02T04:04:27.507Z,19.03
2018-10-02T04:05:27.227Z,19.05
2018-10-02T04:06:27.363Z,19.02
2018-10-02T04:07:27.279Z,19.02
2018-10-02T04:08:27.820Z,19.03
2018-10-02T04:09:27.340Z,18.99
2018-10-02T04:10:27.457Z,19.03
2018-10-02T04:11:27.479Z,19.05
2018-10-02T04:12:27.424Z,19.02
2018-10-02T04:13:27.477Z,19.02
2018-10-02T04:14:27.476Z,19.01
2018-10-02T04:15:27.507Z,19.05
2018-10-02T04:16:27.400Z,19.05
2018-10-02T04:17:27.231Z,19.03
2018-10-02T04:18:27.304Z,19.02
2018-10-02T04:19:27.485Z,19.03
2018-10-02T04:20:27.453Z,19.01
2018-10-02T04:21:27.261Z,19.02
2018-10-02T04:22:27.191Z,19.01
2018-10-02T04:23:27.377Z,19.01
2018-10-02T04:24:27.491Z,19.05
2018-10-02T04:25:27.477Z,19.01
2018-10-02T04:26:27.201Z,19.03
2018-10-02T04:27:27.231Z,19.03
2018-10-02T04:28:28.738Z,19.02
2018-10-02T04:29:27.284Z,19.03
2018-10-02T04:30:27.402Z,19.01
2018-10-02T04:31:27.285Z,18.99
2018-10-02T04:32:27.403Z,19.01
2018-10-02T04:33:27.249Z,19.02
2018-10-02T04:34:27.238Z,19.02
2018-10-02T04:35:27.395Z,19.03
2018-10-02T04:36:27.506Z,19.03
2018-10-02T04:37:27.346Z,19.02
2018-10-02T04:38:27.303Z,19.03
2018-10-02T04:39:28.440Z,19.02
2018-10-02T04:40:27.188Z,19.01
2018-10-02T04:41:27.406Z,19.03
2018-10-02T04:42:27.343Z,19.01
2018-10-02T04:43:27.453Z,19.02
2018-10-02T04:44:27.329Z,19.01
2018-10-02T04:45:27.215Z,19.02
2018-10-02T04:46:27.654Z,19.01
2018-10-02T04:47:27.557Z,19.05
2018-10-02T04:48:27.745Z,19.02
2018-10-02T04:49:27.258Z,19.01
2018-10-02T04:50:27.508Z,19.01
2018-10-02T04:51:27.693Z,19.03
2018-10-02T04:52:27.245Z,19.02
2018-10-02T04:53:27.717Z,19.02
2018-10-02T04:54:27.247Z,19.02
2018-10-02T04:55:27.352Z,19.02
2018-10-02T04:56:27.396Z,19.02
2018-10-02T04:57:27.272Z,19.03
2018-10-02T04:58:27.197Z,19.01
2018-10-02T04:59:27.719Z,19.02
2018-10-02T05:00:27.195Z,19.02
2018-10-02T05:01:27.329Z,19.03
2018-10-02T05:02:28.618Z,19.02
2018-10-02T05:03:27.426Z,19.03
2018-10-02T05:04:27.342Z,19.05
2018-10-02T05:05:27.610Z,19.01
2018-10-02T05:06:27.619Z,19.02
2018-10-02T05:07:27.532Z,19.05
2018-10-02T05:08:28.799Z,19.02
2018-10-02T05:09:27.165Z,19.03
2018-10-02T05:10:27.552Z,19.02
2018-10-02T05:11:27.354Z,19.03
2018-10-02T05:12:27.244Z,19.03
2018-10-02T05:13:27.400Z,19.02
2018-10-02T05:14:27.214Z,19.02
2018-10-02T05:15:27.441Z,19.03
2018-10-02T05:16:27.351Z,19.03
2018-10-02T05:17:27.758Z,19.01
2018-10-02T05:18:27.348Z,19.02
2018-10-02T05:19:27.816Z,19.02
2018-10-02T05:20:27.382Z,19.02
2018-10-02T05:21:27.196Z,19.02
2018-10-02T05:22:27.730Z,19.05
2018-10-02T05:23:27.154Z,19.02
2018-10-02T05:24:27.248Z,19.05
2018-10-02T05:25:27.242Z,19.06
2018-10-02T05:26:27.237Z,19.05
2018-10-02T05:27:28.511Z,19.05
2018-10-02T05:28:27.273Z,19.03
2018-10-02T05:29:27.295Z,19.05
2018-10-02T05:30:27.235Z,19.03
2018-10-02T05:31:27.407Z,19.01
2018-10-02T05:32:27.481Z,19.03
2018-10-02T05:33:27.424Z,19.03
2018-10-02T05:34:27.530Z,19.05
2018-10-02T05:35:28.599Z,19.03
2018-10-02T05:36:27.293Z,19.02
2018-10-02T05:37:27.312Z,19.02
2018-10-02T05:38:27.131Z,19.05
2018-10-02T05:39:27.272Z,19.03
2018-10-02T05:40:27.317Z,19.03
2018-10-02T05:41:27.170Z,19.06
2018-10-02T05:42:27.776Z,19.05
2018-10-02T05:43:27.189Z,19.05
2018-10-02T05:44:27.437Z,19.02
2018-10-02T05:45:27.345Z,19.05
2018-10-02T05:46:27.262Z,19.03
2018-10-02T05:47:27.415Z,19.01
2018-10-02T05:48:27.286Z,19.03
2018-10-02T05:49:27.436Z,19.05
2018-10-02T05:50:27.500Z,19.05
2018-10-02T05:51:27.110Z,19.03
2018-10-02T05:52:27.181Z,19.03
2018-10-02T05:53:27.314Z,19.03
2018-10-02T05:54:27.396Z,19.05
2018-10-02T05:55:27.232Z,19.03
2018-10-02T05:56:27.407Z,19.05
2018-10-02T05:57:27.290Z,19.06
2018-10-02T05:58:28.546Z,19.05
2018-10-02T05:59:27.330Z,19.06
2018-10-02T06:00:27.120Z,19.03
2018-10-02T06:01:27.494Z,19.06
2018-10-02T06:02:27.603Z,19.02
2018-10-02T06:03:27.807Z,19.06
2018-10-02T06:04:27.326Z,19.05
2018-10-02T06:05:27.331Z,19.03
2018-10-02T06:06:27.539Z,19.06
2018-10-02T06:07:27.247Z,19.08
2018-10-02T06:08:27.549Z,19.06
2018-10-02T06:09:27.350Z,19.06
2018-10-02T06:10:27.510Z,19.06
2018-10-02T06:11:27.227Z,19.03
2018-10-02T06:12:27.052Z,19.03
2018-10-02T06:13:27.431Z,19.06
2018-10-02T06:14:27.120Z,19.01
2018-10-02T06:15:27.349Z,19.03
2018-10-02T06:16:27.386Z,19.02
2018-10-02T06:17:27.429Z,19.02
2018-10-02T06:18:27.491Z,19.05
2018-10-02T06:19:27.304Z,19.02
2018-10-02T06:20:27.259Z,19.03
2018-10-02T06:21:27.333Z,19.03
2018-10-02T06:22:27.371Z,19.03
2018-10-02T06:23:27.603Z,19.08
2018-10-02T06:24:27.366Z,19.06
2018-10-02T06:25:27.234Z,19.08
2018-10-02T06:26:28.086Z,19.09
2018-10-02T06:27:27.345Z,19.09
2018-10-02T06:28:27.518Z,19.08
2018-10-02T06:29:27.362Z,19.08
2018-10-02T06:30:28.578Z,19.09
2018-10-02T06:31:27.360Z,19.06
2018-10-02T06:32:27.296Z,19.08
2018-10-02T06:33:27.318Z,19.09
2018-10-02T06:34:27.428Z,19.06
2018-10-02T06:35:27.313Z,19.05
2018-10-02T06:36:27.351Z,19.08
2018-10-02T06:37:27.346Z,19.05
2018-10-02T06:38:29.774Z,19.11
2018-10-02T06:39:27.293Z,19.11
2018-10-02T06:40:28.194Z,19.09
2018-10-02T06:41:27.511Z,19.13
2018-10-02T06:42:27.235Z,19.13
2018-10-02T06:43:27.658Z,19.12
2018-10-02T06:44:27.876Z,19.15
2018-10-02T06:45:27.608Z,19.15
2018-10-02T06:46:27.367Z,19.13
2018-10-02T06:47:27.263Z,19.13
2018-10-02T06:48:27.447Z,19.15
2018-10-02T06:49:27.303Z,19.19
2018-10-02T06:50:27.276Z,19.16
2018-10-02T06:51:28.567Z,19.18
2018-10-02T06:52:30.889Z,19.16
2018-10-02T06:53:27.348Z,19.16
2018-10-02T06:54:27.339Z,19.18
2018-10-02T06:55:27.487Z,19.19
2018-10-02T06:56:27.592Z,19.2
2018-10-02T06:57:27.789Z,19.22
2018-10-02T06:58:27.287Z,19.25
2018-10-02T06:59:27.198Z,19.2
2018-10-02T07:00:27.467Z,19.23
2018-10-02T07:01:27.215Z,19.23
2018-10-02T07:02:27.630Z,19.25
2018-10-02T07:03:27.199Z,19.25
2018-10-02T07:04:27.346Z,19.25
2018-10-02T07:05:27.550Z,19.23
2018-10-02T07:06:27.410Z,19.26
2018-10-02T07:07:27.429Z,19.27
2018-10-02T07:08:27.585Z,19.29
2018-10-02T07:09:27.284Z,19.26
2018-10-02T07:10:27.583Z,19.26
2018-10-02T07:11:27.178Z,19.29
2018-10-02T07:12:27.598Z,19.29
2018-10-02T07:13:27.060Z,19.29
2018-10-02T07:14:27.754Z,19.3
2018-10-02T07:15:27.417Z,19.26
2018-10-02T07:16:27.185Z,19.23
2018-10-02T07:17:27.857Z,19.25
2018-10-02T07:18:27.088Z,19.26
2018-10-02T07:19:27.256Z,19.25
2018-10-02T07:20:27.678Z,19.25
2018-10-02T07:21:27.266Z,19.22
2018-10-02T07:22:27.269Z,19.23
2018-10-02T07:23:27.196Z,19.23
2018-10-02T07:24:27.172Z,19.2
2018-10-02T07:25:27.141Z,19.2
2018-10-02T07:26:28.162Z,19.19
2018-10-02T07:27:29.998Z,19.23
2018-10-02T07:28:28.737Z,19.2
2018-10-02T07:29:27.433Z,19.22
2018-10-02T07:30:27.610Z,19.22
2018-10-02T07:31:27.496Z,19.2
2018-10-02T07:32:27.641Z,19.22
2018-10-02T07:33:27.317Z,19.22
2018-10-02T07:34:27.222Z,19.18
2018-10-02T07:35:27.537Z,19.19
2018-10-02T07:36:28.147Z,19.19
2018-10-02T07:37:27.787Z,19.18
2018-10-02T07:38:28.203Z,19.18
2018-10-02T07:39:27.309Z,19.19
2018-10-02T07:40:27.584Z,19.2
2018-10-02T07:41:28.016Z,19.16
2018-10-02T07:42:28.271Z,19.15
2018-10-02T07:43:27.303Z,19.16
2018-10-02T07:44:27.682Z,19.16
2018-10-02T07:45:27.551Z,19.18
2018-10-02T07:46:27.417Z,19.16
2018-10-02T07:47:27.660Z,19.18
2018-10-02T07:48:28.077Z,19.15
2018-10-02T07:49:27.270Z,19.16
2018-10-02T07:50:27.538Z,19.15
2018-10-02T07:51:27.454Z,19.18
2018-10-02T07:52:27.176Z,19.16
2018-10-02T07:53:27.676Z,19.13
2018-10-02T07:54:27.227Z,19.15
2018-10-02T07:55:28.171Z,19.15
2018-10-02T07:56:27.722Z,19.12
2018-10-02T07:57:27.313Z,19.15
2018-10-02T07:58:27.478Z,19.13
2018-10-02T07:59:27.599Z,19.12
2018-10-02T08:00:27.259Z,19.16
2018-10-02T08:01:27.605Z,19.13
2018-10-02T08:02:28.169Z,19.16
2018-10-02T08:03:27.461Z,19.13
2018-10-02T08:04:27.292Z,19.15
2018-10-02T08:05:27.918Z,19.12
2018-10-02T08:06:27.089Z,19.12
2018-10-02T08:07:27.151Z,19.13
2018-10-02T08:08:27.796Z,19.12
2018-10-02T08:09:27.177Z,19.13
2018-10-02T08:10:27.428Z,19.12
2018-10-02T08:11:27.513Z,19.11
2018-10-02T08:12:29.455Z,19.13
2018-10-02T08:13:27.868Z,19.12
2018-10-02T08:14:27.472Z,19.12
2018-10-02T08:15:27.115Z,19.12
2018-10-02T08:16:27.216Z,19.15
2018-10-02T08:17:28.142Z,19.13
2018-10-02T08:18:27.232Z,19.13
2018-10-02T08:19:27.475Z,19.12
2018-10-02T08:20:27.837Z,19.11
2018-10-02T08:21:27.238Z,19.11
2018-10-02T08:22:27.251Z,19.12
2018-10-02T08:23:28.165Z,19.11
2018-10-02T08:24:27.240Z,19.13
2018-10-02T08:25:27.216Z,19.11
2018-10-02T08:26:27.570Z,19.11
2018-10-02T08:27:28.545Z,19.13
2018-10-02T08:28:27.275Z,19.15
2018-10-02T08:29:28.263Z,19.12
2018-10-02T08:30:28.773Z,19.11
2018-10-02T08:31:27.317Z,19.12
2018-10-02T08:32:27.814Z,19.12
2018-10-02T08:33:27.171Z,19.13
2018-10-02T08:34:27.243Z,19.13
2018-10-02T08:35:28.145Z,19.15
2018-10-02T08:36:27.920Z,19.18
2018-10-02T08:37:27.233Z,19.15
2018-10-02T08:38:27.683Z,19.13
2018-10-02T08:39:27.056Z,19.13
2018-10-02T08:40:27.240Z,19.13
2018-10-02T08:41:27.265Z,19.13
2018-10-02T08:42:27.271Z,19.12
2018-10-02T08:43:28.438Z,19.11
2018-10-02T08:44:27.607Z,19.09
2018-10-02T08:45:27.171Z,19.11
2018-10-02T08:46:27.214Z,19.08
2018-10-02T08:47:27.525Z,19.12
2018-10-02T08:48:27.125Z,19.09
2018-10-02T08:49:27.476Z,19.09
2018-10-02T08:50:27.818Z,19.09
2018-10-02T08:51:27.095Z,19.09
2018-10-02T08:52:27.237Z,19.09
2018-10-02T08:53:27.649Z,19.06
2018-10-02T08:54:27.086Z,19.09
2018-10-02T08:55:27.586Z,19.11
2018-10-02T08:56:27.199Z,19.12
2018-10-02T08:57:27.237Z,19.13
2018-10-02T08:58:27.207Z,19.12
2018-10-02T08:59:27.287Z,19.13
2018-10-02T09:00:27.638Z,19.11
2018-10-02T09:01:27.279Z,19.11
2018-10-02T09:02:27.161Z,19.09
2018-10-02T09:03:27.343Z,19.09
2018-10-02T09:04:27.203Z,19.11
2018-10-02T09:05:27.641Z,19.08
2018-10-02T09:06:27.502Z,19.09
2018-10-02T09:07:27.163Z,19.11
2018-10-02T09:08:27.267Z,19.11
2018-10-02T09:09:27.173Z,19.11
2018-10-02T09:10:27.778Z,19.09
2018-10-02T09:11:26.996Z,19.09
2018-10-02T09:12:27.681Z,19.13
2018-10-02T09:13:27.093Z,19.09
2018-10-02T09:14:27.307Z,19.11
2018-10-02T09:15:28.182Z,19.11
2018-10-02T09:16:28.662Z,19.11
2018-10-02T09:17:27.222Z,19.12
2018-10-02T09:18:27.741Z,19.13
2018-10-02T09:19:27.331Z,19.12
2018-10-02T09:20:27.051Z,19.09
2018-10-02T09:21:27.939Z,19.12
2018-10-02T09:22:27.745Z,19.13
2018-10-02T09:23:27.178Z,19.11
2018-10-02T09:24:27.783Z,19.11
2018-10-02T09:25:27.045Z,19.12
2018-10-02T09:26:27.271Z,19.09
2018-10-02T09:27:27.476Z,19.11
2018-10-02T09:28:27.918Z,19.09
2018-10-02T09:29:27.615Z,19.09
2018-10-02T09:30:29.198Z,19.08
2018-10-02T09:31:27.317Z,19.08
2018-10-02T09:32:27.227Z,19.09
2018-10-02T09:33:27.899Z,19.09
2018-10-02T09:34:27.344Z,19.11
2018-10-02T09:35:27.530Z,19.09
2018-10-02T09:36:28.220Z,19.06
2018-10-02T09:37:28.236Z,19.08
2018-10-02T09:38:27.287Z,19.06
2018-10-02T09:39:27.881Z,19.06
2018-10-02T09:40:27.686Z,19.08
2018-10-02T09:41:27.506Z,19.09
2018-10-02T09:42:27.668Z,19.09
2018-10-02T09:43:27.969Z,19.08
2018-10-02T09:44:27.178Z,19.08
2018-10-02T09:45:27.717Z,19.09
2018-10-02T09:46:27.187Z,19.09
2018-10-02T09:47:27.171Z,19.09
2018-10-02T09:48:28.355Z,19.09
2018-10-02T09:49:27.013Z,19.08
2018-10-02T09:50:27.603Z,19.09
2018-10-02T09:51:27.292Z,19.08
2018-10-02T09:52:27.179Z,19.09
2018-10-02T09:53:27.200Z,19.08
2018-10-02T09:54:27.624Z,19.09
2018-10-02T09:55:27.445Z,19.06
2018-10-02T09:56:27.965Z,19.08
2018-10-02T09:57:27.110Z,19.09
2018-10-02T09:58:27.850Z,19.06
2018-10-02T09:59:27.204Z,19.06
2018-10-02T10:00:27.809Z,19.08
2018-10-02T10:01:27.214Z,19.06
2018-10-02T10:02:27.427Z,19.06
2018-10-02T10:03:27.218Z,19.06
2018-10-02T10:04:27.742Z,19.08
2018-10-02T10:05:27.229Z,19.05
2018-10-02T10:06:27.129Z,19.05
2018-10-02T10:07:27.107Z,19.05
2018-10-02T10:08:26.992Z,19.06
2018-10-02T10:09:27.190Z,19.06
2018-10-02T10:10:28.062Z,19.06
2018-10-02T10:11:27.033Z,19.09
2018-10-02T10:12:27.050Z,19.09
2018-10-02T10:13:27.014Z,19.06
2018-10-02T10:14:27.155Z,19.06
2018-10-02T10:15:27.676Z,19.06
2018-10-02T10:16:27.903Z,19.06
2018-10-02T10:17:28.413Z,19.06
2018-10-02T10:18:27.141Z,19.08
2018-10-02T10:19:27.533Z,19.08
2018-10-02T10:20:27.419Z,19.06
2018-10-02T10:21:27.337Z,19.05
2018-10-02T10:22:27.628Z,19.06
2018-10-02T10:23:27.411Z,19.05
2018-10-02T10:24:27.242Z,19.06
2018-10-02T10:25:27.570Z,19.03
2018-10-02T10:26:27.641Z,19.03
2018-10-02T10:27:27.310Z,19.05
2018-10-02T10:28:27.897Z,19.05
2018-10-02T10:29:27.212Z,19.03
2018-10-02T10:30:27.052Z,19.08
2018-10-02T10:31:27.488Z,19.05
2018-10-02T10:32:27.284Z,19.08
2018-10-02T10:33:27.979Z,19.09
2018-10-02T10:34:27.996Z,19.05
2018-10-02T10:35:27.278Z,19.05
2018-10-02T10:36:27.095Z,19.08
2018-10-02T10:37:27.240Z,19.06
2018-10-02T10:38:26.990Z,19.08
2018-10-02T10:39:27.460Z,19.05
2018-10-02T10:40:27.458Z,19.05
2018-10-02T10:41:27.228Z,19.05
2018-10-02T10:42:27.474Z,19.06
2018-10-02T10:43:27.185Z,19.02
2018-10-02T10:44:27.603Z,19.01
2018-10-02T10:45:27.192Z,19.06
2018-10-02T10:46:27.693Z,19.03
2018-10-02T10:47:27.427Z,19.03
2018-10-02T10:48:27.357Z,19.02
2018-10-02T10:49:27.191Z,19.03
2018-10-02T10:50:26.982Z,19.05
2018-10-02T10:51:27.244Z,19.05
2018-10-02T10:52:27.666Z,19.03
2018-10-02T10:53:27.542Z,19.03
2018-10-02T10:54:27.349Z,19.03
2018-10-02T10:55:27.667Z,19.05
2018-10-02T10:56:27.806Z,19.06
2018-10-02T10:57:27.255Z,19.05
2018-10-02T10:58:27.773Z,19.03
2018-10-02T10:59:27.174Z,19.05
2018-10-02T11:00:27.434Z,19.05
2018-10-02T11:01:27.313Z,19.08
2018-10-02T11:02:27.424Z,19.03
2018-10-02T11:03:27.217Z,19.03
2018-10-02T11:04:27.672Z,19.05
2018-10-02T11:05:27.201Z,19.03
2018-10-02T11:06:27.129Z,19.03
2018-10-02T11:07:27.228Z,19.05
2018-10-02T11:08:27.445Z,19.05
2018-10-02T11:09:28.139Z,19.06
2018-10-02T11:10:27.391Z,19.05
2018-10-02T11:11:27.361Z,19.05
2018-10-02T11:12:27.568Z,19.06
2018-10-02T11:13:27.209Z,19.05
2018-10-02T11:14:27.011Z,19.05
2018-10-02T11:15:27.366Z,19.03
2018-10-02T11:16:27.182Z,19.06
2018-10-02T11:17:27.323Z,19.05
2018-10-02T11:18:27.406Z,19.03
2018-10-02T11:19:28.069Z,19.03
2018-10-02T11:20:27.235Z,19.03
2018-10-02T11:21:27.111Z,19.03
2018-10-02T11:22:27.116Z,19.02
2018-10-02T11:23:27.068Z,19.06
2018-10-02T11:24:27.196Z,19.01
2018-10-02T11:25:28.506Z,19.02
2018-10-02T11:26:27.204Z,19.03
2018-10-02T11:27:27.105Z,19.05
2018-10-02T11:28:27.021Z,19.05
2018-10-02T11:29:27.350Z,19.03
2018-10-02T11:30:27.138Z,19.03
2018-10-02T11:31:27.567Z,19.02
2018-10-02T11:32:27.061Z,18.99
2018-10-02T11:33:27.109Z,19.01
2018-10-02T11:34:27.410Z,19.03
2018-10-02T11:35:27.974Z,19.02
2018-10-02T11:36:27.168Z,19.02
2018-10-02T11:37:27.336Z,19.02
2018-10-02T11:38:27.108Z,19.03
2018-10-02T11:39:27.101Z,19.02
2018-10-02T11:40:27.091Z,19.05
2018-10-02T11:41:27.219Z,19.03
2018-10-02T11:42:27.151Z,19.05
2018-10-02T11:43:27.219Z,19.03
2018-10-02T11:44:29.280Z,19.02
2018-10-02T11:45:26.952Z,19.01
2018-10-02T11:46:27.079Z,19.02
2018-10-02T11:47:27.191Z,19.03
2018-10-02T11:48:27.182Z,19.03
2018-10-02T11:49:27.769Z,19.05
2018-10-02T11:50:27.085Z,19.02
2018-10-02T11:51:27.226Z,19.02
2018-10-02T11:52:27.192Z,19.02
2018-10-02T11:53:27.073Z,19.02
2018-10-02T11:54:27.251Z,19.02
2018-10-02T11:55:28.867Z,19.03
2018-10-02T11:56:27.301Z,19.03
2018-10-02T11:57:28.035Z,19.02
2018-10-02T11:58:27.125Z,19.02
2018-10-02T11:59:27.007Z,19.03
2018-10-02T12:00:28.143Z,19.03
2018-10-02T12:01:29.045Z,19.02
2018-10-02T12:02:27.694Z,19.02
2018-10-02T12:03:28.633Z,19.01
2018-10-02T12:04:27.479Z,18.98
2018-10-02T12:05:27.230Z,18.99
2018-10-02T12:06:27.148Z,18.99
2018-10-02T12:07:27.453Z,19.01
2018-10-02T12:08:27.153Z,19.01
2018-10-02T12:09:27.323Z,19.01
2018-10-02T12:10:27.455Z,19.01
2018-10-02T12:11:28.552Z,19.01
2018-10-02T12:12:27.477Z,19.02
2018-10-02T12:13:28.725Z,19.02
2018-10-02T12:14:30.663Z,19.01
2018-10-02T12:15:27.332Z,19.03
2018-10-02T12:16:27.219Z,19.02
2018-10-02T12:17:27.340Z,19.05
2018-10-02T12:18:27.162Z,19.06
2018-10-02T12:19:28.581Z,19.06
2018-10-02T12:20:27.138Z,19.05
2018-10-02T12:21:27.072Z,19.03
2018-10-02T12:22:27.261Z,19.02
2018-10-02T12:23:27.215Z,19.02
2018-10-02T12:24:27.471Z,19.03
2018-10-02T12:25:26.958Z,19.05
2018-10-02T12:26:27.486Z,19.03
2018-10-02T12:27:27.071Z,19.02
2018-10-02T12:28:27.705Z,19.02
2018-10-02T12:29:26.958Z,19.02
2018-10-02T12:30:27.261Z,19.02
2018-10-02T12:31:27.240Z,19.02
2018-10-02T12:32:26.970Z,19.02
2018-10-02T12:33:27.332Z,19.01
2018-10-02T12:34:27.204Z,19.03
2018-10-02T12:35:27.265Z,19.03
2018-10-02T12:36:27.229Z,19.03
2018-10-02T12:37:27.075Z,19.02
2018-10-02T12:38:27.934Z,19.02
2018-10-02T12:39:28.501Z,19.05
2018-10-02T12:40:27.163Z,19.03
2018-10-02T12:41:27.493Z,19.01
2018-10-02T12:42:27.148Z,19.02
2018-10-02T12:43:27.199Z,19.02
2018-10-02T12:44:27.544Z,19.02
2018-10-02T12:45:27.477Z,19.03
2018-10-02T12:46:27.447Z,19.01
2018-10-02T12:47:27.144Z,19.03
2018-10-02T12:48:27.865Z,19.01
2018-10-02T12:49:27.112Z,19.02
2018-10-02T12:50:27.033Z,18.99
2018-10-02T12:51:27.069Z,19.01
2018-10-02T12:52:28.438Z,19.02
2018-10-02T12:53:27.108Z,19.03